Time;durP1;ratioP1;P1;durP2;ratioP2;P2;SDS_P1;SDS_P2;PMS_P1;PMS_P2;Temp;Humidity;BMP_temperature;BMP_pressure;BME280_temperature;BME280_humidity;BME280_pressure;Samples;Min_cycle;Max_cycle;Signal;HPM_P1;HPM_P2
2021/11/18 00:00:34;;;;;;;8.90;8.02;;;6.00;99.90;;;;;;5111375;28;20198;-83
2021/11/18 00:03:01;;;;;;;7.35;6.68;;;;;;;;;;5111630;28;20199;-83
2021/11/18 00:05:29;;;;;;;8.30;7.18;;;;;;;;;;5111867;28;20612;-83
2021/11/18 00:07:57;;;;;;;7.40;6.70;;;6.00;99.90;;;;;;5110928;28;20226;-83
2021/11/18 00:10:26;;;;;;;8.98;7.00;;;5.90;99.90;;;;;;5110871;28;20329;-82
2021/11/18 00:12:55;;;;;;;9.05;7.07;;;6.00;99.90;;;;;;5111565;28;20313;-83
2021/11/18 00:15:26;;;;;;;7.38;6.47;;;6.10;99.90;;;;;;5110466;28;20598;-83
2021/11/18 00:17:53;;;;;;;7.93;6.97;;;;;;;;;;5111255;28;20198;-83
2021/11/18 00:20:20;;;;;;;8.45;7.57;;;;;;;;;;5110171;28;20731;-83
2021/11/18 00:22:47;;;;;;;7.47;6.75;;;6.00;99.90;;;;;;5111179;28;20194;-82
2021/11/18 00:25:15;;;;;;;8.50;6.97;;;6.30;99.90;;;;;;5111684;28;20226;-83
2021/11/18 00:27:42;;;;;;;7.05;6.20;;;6.20;99.90;;;;;;5105846;28;20860;-82
2021/11/18 00:30:13;;;;;;;8.43;6.20;;;6.10;99.90;;;;;;5110335;28;20195;-82
2021/11/18 00:32:40;;;;;;;7.90;6.75;;;6.10;99.90;;;;;;5111472;28;20278;-82
2021/11/18 00:35:10;;;;;;;8.60;7.70;;;6.10;99.90;;;;;;5111052;28;20198;-83
2021/11/18 00:37:37;;;;;;;7.57;6.40;;;6.70;99.90;;;;;;5111444;28;20259;-82
2021/11/18 00:40:05;;;;;;;8.65;7.10;;;6.00;99.90;;;;;;5110617;28;20194;-82
2021/11/18 00:42:32;;;;;;;7.43;5.85;;;;;;;;;;5110497;28;20224;-82
2021/11/18 00:45:00;;;;;;;7.70;6.50;;;;;;;;;;5109814;28;20228;-82
2021/11/18 00:47:28;;;;;;;8.52;6.88;;;6.00;99.90;;;;;;5110238;28;20231;-82
2021/11/18 00:49:55;;;;;;;8.10;6.97;;;5.90;99.90;;;;;;5110051;28;20674;-82
2021/11/18 00:52:22;;;;;;;7.60;6.90;;;6.00;99.90;;;;;;5110031;28;20304;-83
2021/11/18 00:54:50;;;;;;;8.80;6.72;;;6.10;99.90;;;;;;5110319;28;20624;-82
2021/11/18 00:57:17;;;;;;;7.43;6.72;;;5.70;99.90;;;;;;5110622;28;20218;-83
2021/11/18 00:59:46;;;;;;;6.88;6.28;;;;;;;;;;5110067;28;20255;-82
2021/11/18 01:02:13;;;;;;;7.75;6.55;;;;;;;;;;5109863;28;20194;-82
2021/11/18 01:04:41;;;;;;;5.88;5.28;;;6.10;99.90;;;;;;5110543;28;20194;-83
2021/11/18 01:07:09;;;;;;;11.00;7.68;;;6.00;99.90;;;;;;5110617;28;20229;-82
2021/11/18 01:09:36;;;;;;;8.15;7.30;;;;;;;;;;5110702;28;20290;-82
2021/11/18 01:12:04;;;;;;;7.43;6.30;;;6.30;99.90;;;;;;5109374;28;20298;-82
2021/11/18 01:14:33;;;;;;;7.28;6.40;;;;;;;;;;5108680;28;20243;-82
2021/11/18 01:17:01;;;;;;;7.15;6.43;;;6.80;99.90;;;;;;5110141;28;20297;-82
2021/11/18 01:19:28;;;;;;;7.55;6.35;;;6.50;99.90;;;;;;5110426;28;20194;-81
2021/11/18 01:21:56;;;;;;;7.45;6.63;;;;;;;;;;5103865;28;20350;-83
2021/11/18 01:24:23;;;;;;;8.82;7.10;;;5.80;99.90;;;;;;5090719;28;20245;-83
2021/11/18 01:26:50;;;;;;;8.15;7.28;;;5.10;99.90;;;;;;5110015;28;20236;-83
2021/11/18 01:29:17;;;;;;;11.93;6.68;;;6.20;99.90;;;;;;5110324;28;20206;-82
2021/11/18 01:31:44;;;;;;;9.00;6.72;;;6.30;99.90;;;;;;5109893;28;20317;-82
2021/11/18 01:34:11;;;;;;;7.93;6.55;;;6.20;99.90;;;;;;5110335;28;20267;-82
2021/11/18 01:36:41;;;;;;;8.57;6.72;;;6.20;99.90;;;;;;5110417;28;20194;-82
2021/11/18 01:39:10;;;;;;;6.65;6.05;;;6.80;99.90;;;;;;5110396;28;20247;-81
2021/11/18 01:41:41;;;;;;;8.30;7.03;;;5.70;99.90;;;;;;5109646;28;20202;-82
2021/11/18 01:44:14;;;;;;;9.93;7.45;;;6.10;99.90;;;;;;5110510;28;20190;-81
2021/11/18 01:46:41;;;;;;;7.75;6.68;;;6.00;99.90;;;;;;5098952;28;20279;-82
2021/11/18 01:49:11;;;;;;;7.65;6.80;;;5.90;99.90;;;;;;5110505;28;20191;-83
2021/11/18 01:51:42;;;;;;;7.00;6.30;;;6.10;99.90;;;;;;5109642;28;20300;-82
2021/11/18 01:54:12;;;;;;;8.00;6.05;;;6.00;99.90;;;;;;5110072;28;20282;-82
2021/11/18 01:56:38;;;;;;;6.90;6.20;;;6.70;99.90;;;;;;5117659;28;20198;-83
2021/11/18 01:59:13;;;;;;;7.10;5.55;;;5.80;99.90;;;;;;5117274;28;20197;-83
2021/11/18 02:01:43;;;;;;;7.35;6.32;;;5.90;99.90;;;;;;5115838;28;20198;-82
2021/11/18 02:04:15;;;;;;;6.60;5.90;;;5.90;99.90;;;;;;5116793;28;20198;-82
2021/11/18 02:06:48;;;;;;;6.82;6.00;;;6.00;99.90;;;;;;5116526;27;20182;-83
2021/11/18 02:09:19;;;;;;;8.07;5.88;;;6.00;99.90;;;;;;5117159;28;20200;-83
2021/11/18 02:11:56;;;;;;;9.30;6.55;;;5.90;99.90;;;;;;5116240;28;20222;-82
2021/11/18 02:14:26;;;;;;;8.68;6.50;;;6.10;99.90;;;;;;5096278;28;20268;-81
2021/11/18 02:16:57;;;;;;;10.20;7.28;;;6.10;99.90;;;;;;5105753;28;20585;-82
2021/11/18 02:19:24;;;;;;;8.27;6.80;;;;;;;;;;5117134;28;20202;-82
2021/11/18 02:21:53;;;;;;;8.00;6.18;;;6.10;99.90;;;;;;5116681;27;20210;-83
2021/11/18 02:24:24;;;;;;;8.82;6.35;;;6.20;99.90;;;;;;5100747;28;20194;-83
2021/11/18 02:26:51;;;;;;;8.02;5.47;;;5.90;99.90;;;;;;5116675;28;20329;-82
2021/11/18 02:29:19;;;;;;;8.60;6.50;;;6.00;99.90;;;;;;5116637;28;20738;-82
2021/11/18 02:31:48;;;;;;;8.80;6.35;;;6.00;99.90;;;;;;5115824;27;20250;-82
2021/11/18 02:34:20;;;;;;;6.40;5.70;;;6.20;99.90;;;;;;5116348;28;20278;-82
2021/11/18 02:36:47;;;;;;;6.40;5.18;;;5.90;99.90;;;;;;5117086;28;20593;-83
2021/11/18 02:39:16;;;;;;;8.60;6.13;;;;;;;;;;5116813;28;20190;-82
2021/11/18 02:41:43;;;;;;;6.68;5.45;;;5.90;99.90;;;;;;5116334;27;20205;-82
2021/11/18 02:44:11;;;;;;;7.00;5.07;;;;;;;;;;5116319;28;20723;-82
2021/11/18 02:46:38;;;;;;;7.95;6.35;;;6.20;99.90;;;;;;5116320;28;20706;-82
2021/11/18 02:49:06;;;;;;;7.85;6.18;;;6.00;99.90;;;;;;5116517;28;20257;-82
2021/11/18 02:51:33;;;;;;;6.30;5.20;;;;;;;;;;5115668;28;20297;-82
2021/11/18 02:54:00;;;;;;;5.95;4.82;;;6.70;99.90;;;;;;5116914;28;20194;-83
2021/11/18 02:56:29;;;;;;;7.35;5.55;;;6.10;99.90;;;;;;5117490;27;20559;-82
2021/11/18 02:58:56;;;;;;;7.55;6.80;;;6.90;99.90;;;;;;5133310;27;20290;-83
2021/11/18 03:01:25;;;;;;;7.22;6.53;;;6.10;99.90;;;;;;5115767;28;20300;-82
2021/11/18 03:03:53;;;;;;;7.78;6.28;;;;;;;;;;5116674;28;20278;-83
2021/11/18 03:06:20;;;;;;;7.47;6.47;;;6.10;99.90;;;;;;5114250;28;20286;-82
2021/11/18 03:08:47;;;;;;;8.38;6.85;;;;;;;;;;5113359;28;20230;-82
2021/11/18 03:11:16;;;;;;;7.15;6.15;;;6.20;99.90;;;;;;5113084;27;20742;-82
2021/11/18 03:13:45;;;;;;;8.57;7.70;;;6.10;99.90;;;;;;5132529;27;20804;-83
2021/11/18 03:16:13;;;;;;;8.30;7.25;;;6.10;99.90;;;;;;5126342;27;20720;-82
2021/11/18 03:18:40;;;;;;;8.30;7.00;;;;;;;;;;5113456;28;20238;-83
2021/11/18 03:21:10;;;;;;;7.80;7.03;;;6.10;99.90;;;;;;5112192;28;20281;-82
2021/11/18 03:23:37;;;;;;;10.63;7.68;;;6.10;99.90;;;;;;5112500;28;20230;-82
2021/11/18 03:26:05;;;;;;;7.93;7.10;;;6.70;99.90;;;;;;5112977;28;20222;-82
2021/11/18 03:28:34;;;;;;;10.75;7.53;;;6.10;99.90;;;;;;5113115;28;20275;-82
2021/11/18 03:31:03;;;;;;;13.55;9.10;;;6.10;99.90;;;;;;5112153;28;20255;-82
2021/11/18 03:33:35;;;;;;;9.18;8.32;;;6.20;99.90;;;;;;5112804;28;20230;-82
2021/11/18 03:36:03;;;;;;;11.07;7.82;;;;;;;;;;5111920;28;20233;-82
2021/11/18 03:38:31;;;;;;;9.77;7.97;;;6.30;99.90;;;;;;5113003;28;20797;-83
2021/11/18 03:41:03;;;;;;;8.85;6.95;;;;;;;;;;5112292;28;20218;-82
2021/11/18 03:43:33;;;;;;;11.82;8.77;;;6.20;99.90;;;;;;5112444;28;20659;-83
2021/11/18 03:46:00;;;;;;;8.73;7.82;;;;;;;;;;5112608;28;20230;-82
2021/11/18 03:48:32;;;;;;;10.45;7.75;;;6.10;99.90;;;;;;5112210;28;20279;-82
2021/11/18 03:51:01;;;;;;;8.95;7.43;;;6.00;99.90;;;;;;5112238;28;20201;-82
2021/11/18 03:53:29;;;;;;;10.05;8.35;;;6.20;99.90;;;;;;5112405;28;20217;-82
2021/11/18 03:55:56;;;;;;;8.38;7.55;;;;;;;;;;5112484;28;20570;-83
2021/11/18 03:58:23;;;;;;;11.05;7.65;;;;;;;;;;5112149;28;20230;-82
2021/11/18 04:00:50;;;;;;;12.27;8.85;;;;;;;;;;5111341;28;20255;-82
2021/11/18 04:03:18;;;;;;;10.88;8.55;;;6.30;99.90;;;;;;5111842;28;20198;-83
2021/11/18 04:05:46;;;;;;;10.98;8.38;;;6.30;99.90;;;;;;5111950;28;20204;-83
2021/11/18 04:08:14;;;;;;;13.15;9.38;;;;;;;;;;5106912;28;20294;-82
2021/11/18 04:10:42;;;;;;;10.27;8.68;;;6.10;99.90;;;;;;5111266;28;20183;-82
2021/11/18 04:13:10;;;;;;;10.60;8.40;;;6.20;99.90;;;;;;5111412;28;20283;-83
2021/11/18 04:15:38;;;;;;;10.95;8.88;;;6.20;99.90;;;;;;5110638;28;20194;-82
2021/11/18 04:18:05;;;;;;;12.75;9.27;;;;;;;;;;5110878;28;20251;-83
2021/11/18 04:20:32;;;;;;;13.73;10.30;;;;;;;;;;5111206;28;20198;-82
2021/11/18 04:23:07;;;;;;;11.50;10.10;;;6.20;99.90;;;;;;5112214;28;20209;-83
2021/11/18 04:25:36;;;;;;;11.77;8.85;;;6.20;99.90;;;;;;5111774;28;20663;-83
2021/11/18 04:28:03;;;;;;;12.80;8.70;;;6.40;99.90;;;;;;5111610;28;20270;-82
2021/11/18 04:30:33;;;;;;;13.70;10.88;;;6.20;99.90;;;;;;5110746;28;20226;-82
2021/11/18 04:33:00;;;;;;;12.48;10.68;;;6.30;99.90;;;;;;5098129;28;20736;-82
2021/11/18 04:35:27;;;;;;;11.90;8.95;;;6.00;99.90;;;;;;5111636;28;20350;-82
2021/11/18 04:37:54;;;;;;;12.45;9.30;;;6.30;99.90;;;;;;5111905;28;20233;-83
2021/11/18 04:40:23;;;;;;;10.65;8.10;;;6.30;99.90;;;;;;5110642;28;20191;-81
2021/11/18 04:42:50;;;;;;;12.90;8.57;;;;;;;;;;5111093;28;20248;-82
2021/11/18 04:45:19;;;;;;;12.20;8.93;;;6.30;99.90;;;;;;5111249;28;20286;-82
2021/11/18 04:47:47;;;;;;;14.35;9.40;;;6.30;99.90;;;;;;5110975;28;20301;-82
2021/11/18 04:50:14;;;;;;;17.73;10.00;;;6.00;99.90;;;;;;5110315;28;20194;-82
2021/11/18 04:52:42;;;;;;;10.32;8.55;;;6.40;99.90;;;;;;5110874;28;21081;-82
2021/11/18 04:55:11;;;;;;;14.80;8.45;;;6.00;99.90;;;;;;5111043;28;20191;-82
2021/11/18 04:57:40;;;;;;;11.60;9.55;;;;;;;;;;5110964;28;20573;-82
2021/11/18 05:00:12;;;;;;;12.25;9.15;;;6.20;99.90;;;;;;5110496;28;20219;-82
2021/11/18 05:02:40;;;;;;;9.98;8.10;;;6.10;99.90;;;;;;5105754;28;20313;-82
2021/11/18 05:05:09;;;;;;;10.23;8.70;;;6.30;99.90;;;;;;5111221;28;20285;-82
2021/11/18 05:07:36;;;;;;;10.30;8.40;;;7.00;99.90;;;;;;5110988;28;20233;-83
2021/11/18 05:10:04;;;;;;;9.77;7.82;;;6.20;99.90;;;;;;5110497;28;20226;-82
2021/11/18 05:12:31;;;;;;;11.75;8.32;;;6.30;99.90;;;;;;5110772;28;20222;-82
2021/11/18 05:15:00;;;;;;;9.70;8.35;;;6.10;99.90;;;;;;5108640;28;20218;-82
2021/11/18 05:17:27;;;;;;;12.52;9.23;;;;;;;;;;5110736;28;20226;-82
2021/11/18 05:19:54;;;;;;;9.93;8.18;;;6.70;99.90;;;;;;5110608;28;20226;-83
2021/11/18 05:22:21;;;;;;;11.95;8.65;;;;;;;;;;5109432;28;20285;-83
2021/11/18 05:24:48;;;;;;;15.27;8.98;;;6.10;99.90;;;;;;5111181;28;20226;-83
2021/11/18 05:27:15;;;;;;;11.80;8.15;;;;;;;;;;5110392;28;20222;-83
2021/11/18 05:29:42;;;;;;;14.90;10.23;;;;;;;;;;5110352;28;20240;-83
2021/11/18 05:32:11;;;;;;;12.65;8.73;;;6.30;99.90;;;;;;5110062;28;20302;-83
2021/11/18 05:34:39;;;;;;;11.68;8.73;;;;;;;;;;5110632;28;20190;-83
2021/11/18 05:37:06;;;;;;;12.30;9.00;;;;;;;;;;5109939;28;20205;-83
2021/11/18 05:39:35;;;;;;;9.88;8.32;;;6.30;99.90;;;;;;5110209;28;20199;-82
2021/11/18 05:42:02;;;;;;;14.15;9.88;;;;;;;;;;5110357;28;20194;-83
2021/11/18 05:44:29;;;;;;;14.13;10.25;;;6.40;99.90;;;;;;5110418;28;20190;-83
2021/11/18 05:46:56;;;;;;;12.07;10.07;;;;;;;;;;5110307;28;20289;-83
2021/11/18 05:49:25;;;;;;;13.25;10.60;;;5.80;99.90;;;;;;5110494;28;20194;-82
2021/11/18 05:51:52;;;;;;;11.65;8.38;;;6.30;99.90;;;;;;5093529;28;20265;-83
2021/11/18 05:54:20;;;;;;;13.02;9.27;;;6.30;99.90;;;;;;5110612;28;20240;-83
2021/11/18 05:56:47;;;;;;;11.77;9.20;;;6.10;99.90;;;;;;5110481;28;20300;-83
2021/11/18 05:59:14;;;;;;;10.75;8.60;;;7.00;99.90;;;;;;5110023;28;20202;-82
2021/11/18 06:01:41;;;;;;;11.88;9.93;;;6.40;99.90;;;;;;5109685;28;20191;-82
2021/11/18 06:04:09;;;;;;;16.48;12.95;;;6.60;99.90;;;;;;5104216;28;21048;-83
2021/11/18 06:06:38;;;;;;;15.90;10.23;;;;;;;;;;5128776;27;20285;-83
2021/11/18 06:09:05;;;;;;;12.60;9.05;;;;;;;;;;5116473;28;20278;-83
2021/11/18 06:11:34;;;;;;;14.25;8.80;;;6.50;99.90;;;;;;5109560;28;20271;-83
2021/11/18 06:14:01;;;;;;;14.18;9.50;;;6.30;99.90;;;;;;5109555;28;20267;-82
2021/11/18 06:16:29;;;;;;;11.30;9.07;;;6.00;99.90;;;;;;5108387;28;20289;-83
2021/11/18 06:19:00;;;;;;;11.00;8.60;;;6.20;99.90;;;;;;5110408;28;20647;-82
2021/11/18 06:21:29;;;;;;;12.90;8.60;;;6.20;99.90;;;;;;5109983;28;20248;-83
2021/11/18 06:24:00;;;;;;;9.15;7.10;;;;;;;;;;5110000;28;20190;-82
2021/11/18 06:26:27;;;;;;;12.68;8.73;;;;;;;;;;5110000;28;20297;-83
2021/11/18 06:28:55;;;;;;;8.85;7.63;;;7.20;99.90;;;;;;5109587;28;20632;-82
2021/11/18 06:31:23;;;;;;;9.10;7.60;;;6.30;99.90;;;;;;5108701;28;20213;-83
2021/11/18 06:33:51;;;;;;;11.45;7.53;;;6.40;99.90;;;;;;5103274;28;20234;-82
2021/11/18 06:36:20;;;;;;;11.13;7.47;;;6.70;99.90;;;;;;5102747;28;20302;-81
2021/11/18 06:38:53;;;;;;;10.32;7.57;;;6.00;99.90;;;;;;5099566;28;20277;-82
2021/11/18 06:41:29;;;;;;;7.82;6.70;;;6.60;99.90;;;;;;5107413;28;20219;-83
2021/11/18 06:43:56;;;;;;;9.55;7.45;;;;;;;;;;5113064;28;20290;-82
2021/11/18 06:46:23;;;;;;;9.57;7.00;;;;;;;;;;5113469;28;20287;-83
2021/11/18 06:48:52;;;;;;;9.45;7.97;;;;;;;;;;5109407;28;20226;-83
2021/11/18 06:51:22;;;;;;;8.10;6.72;;;6.20;99.90;;;;;;5113055;28;20203;-82
2021/11/18 06:53:51;;;;;;;10.90;7.00;;;6.20;99.90;;;;;;5113492;28;20214;-83
2021/11/18 06:56:19;;;;;;;11.70;8.30;;;6.60;99.90;;;;;;5112444;28;20287;-84
2021/11/18 06:58:48;;;;;;;9.70;7.50;;;6.50;99.90;;;;;;5111091;28;20195;-83
2021/11/18 07:01:16;;;;;;;9.40;8.40;;;6.40;99.90;;;;;;5112473;28;20263;-82
2021/11/18 07:03:43;;;;;;;10.38;7.05;;;6.50;99.90;;;;;;5112751;28;20656;-83
2021/11/18 07:06:13;;;;;;;8.73;7.82;;;6.40;99.90;;;;;;5112524;28;20875;-83
2021/11/18 07:08:40;;;;;;;9.70;7.75;;;;;;;;;;5112199;28;20286;-82
2021/11/18 07:11:08;;;;;;;11.38;7.38;;;6.50;99.90;;;;;;5112356;28;20201;-82
2021/11/18 07:13:36;;;;;;;13.25;8.85;;;6.60;99.90;;;;;;5127060;27;20309;-82
2021/11/18 07:16:06;;;;;;;8.77;7.18;;;6.50;99.90;;;;;;5113581;27;20214;-82
2021/11/18 07:18:33;;;;;;;9.32;6.90;;;6.60;99.90;;;;;;5112803;28;20198;-83
2021/11/18 07:21:03;;;;;;;13.75;7.55;;;6.50;99.90;;;;;;5111879;28;20201;-82
2021/11/18 07:23:31;;;;;;;12.95;8.55;;;6.40;99.90;;;;;;5112204;28;20669;-82
2021/11/18 07:26:00;;;;;;;10.93;7.82;;;6.30;99.90;;;;;;5111800;28;20186;-83
2021/11/18 07:28:30;;;;;;;11.60;8.18;;;8.00;99.90;;;;;;5112598;28;20263;-83
2021/11/18 07:30:57;;;;;;;12.65;8.15;;;6.60;99.90;;;;;;5112439;28;20289;-83
2021/11/18 07:33:26;;;;;;;10.93;7.88;;;6.40;99.90;;;;;;5111529;28;20283;-83
2021/11/18 07:35:54;;;;;;;13.35;8.82;;;;;;;;;;5109284;28;20236;-83
2021/11/18 07:38:23;;;;;;;16.75;9.45;;;6.60;99.90;;;;;;5111318;28;20198;-83
2021/11/18 07:40:50;;;;;;;14.32;8.02;;;6.20;99.90;;;;;;5110245;28;20190;-83
2021/11/18 07:43:20;;;;;;;17.38;9.77;;;6.50;99.90;;;;;;5111311;28;20251;-83
2021/11/18 07:45:47;;;;;;;16.58;9.73;;;6.70;99.90;;;;;;5111613;28;20283;-82
2021/11/18 07:48:14;;;;;;;18.23;10.00;;;6.80;99.90;;;;;;5111450;28;20285;-84
2021/11/18 07:50:44;;;;;;;14.68;9.63;;;6.60;99.90;;;;;;5111184;28;20384;-83
2021/11/18 07:53:12;;;;;;;15.85;8.93;;;6.40;99.90;;;;;;5111662;28;20303;-83
2021/11/18 07:55:39;;;;;;;13.35;9.43;;;7.20;99.90;;;;;;5106140;28;20204;-83
2021/11/18 07:58:06;;;;;;;16.75;9.23;;;;;;;;;;5112347;28;20202;-84
2021/11/18 08:00:34;;;;;;;17.98;9.68;;;6.60;99.90;;;;;;5110948;28;20243;-83
2021/11/18 08:03:06;;;;;;;19.13;10.55;;;6.70;99.90;;;;;;5111576;28;20194;-83
2021/11/18 08:05:33;;;;;;;17.92;9.13;;;6.70;99.90;;;;;;5111523;28;20198;-83
2021/11/18 08:08:01;;;;;;;18.10;9.70;;;6.70;99.90;;;;;;5112049;28;20267;-83
2021/11/18 08:10:28;;;;;;;14.65;10.45;;;;;;;;;;5110988;28;21020;-83
2021/11/18 08:12:55;;;;;;;15.97;11.13;;;6.80;99.90;;;;;;5124443;27;20209;-84
2021/11/18 08:15:25;;;;;;;21.15;11.57;;;;;;;;;;5117377;27;20636;-83
2021/11/18 08:17:55;;;;;;;12.98;9.45;;;;;;;;;;5118878;27;20191;-83
2021/11/18 08:20:24;;;;;;;16.55;10.27;;;6.80;99.90;;;;;;5111669;28;20206;-83
2021/11/18 08:22:52;;;;;;;18.52;10.65;;;6.70;99.90;;;;;;5110757;28;20191;-84
2021/11/18 08:25:24;;;;;;;14.67;9.90;;;7.50;99.90;;;;;;5111420;28;20191;-85
2021/11/18 08:27:52;;;;;;;15.13;10.55;;;;;;;;;;5111624;28;20623;-84
2021/11/18 08:30:22;;;;;;;15.90;10.18;;;6.90;99.90;;;;;;5111540;28;20323;-83
2021/11/18 08:32:51;;;;;;;26.47;10.90;;;6.30;99.90;;;;;;5111870;28;20224;-84
2021/11/18 08:35:20;;;;;;;16.27;10.63;;;6.90;99.90;;;;;;5111714;28;20667;-84
2021/11/18 08:37:47;;;;;;;15.30;10.18;;;5.50;99.90;;;;;;5112215;28;20673;-84
2021/11/18 08:40:17;;;;;;;19.67;9.65;;;;;;;;;;5110968;28;20256;-83
2021/11/18 08:42:45;;;;;;;18.50;10.20;;;6.90;99.90;;;;;;5110806;28;20659;-85
2021/11/18 08:45:13;;;;;;;17.67;10.60;;;7.00;99.90;;;;;;5111657;28;20659;-83
2021/11/18 08:47:40;;;;;;;23.60;11.50;;;7.10;99.90;;;;;;5111763;28;20240;-83
2021/11/18 08:50:12;;;;;;;19.30;11.50;;;7.00;99.90;;;;;;5111654;28;20255;-82
2021/11/18 08:52:41;;;;;;;19.05;11.40;;;7.00;99.90;;;;;;5110502;28;20673;-83
2021/11/18 08:55:10;;;;;;;16.95;11.07;;;7.20;99.90;;;;;;5111733;28;20233;-84
2021/11/18 08:57:38;;;;;;;17.70;11.83;;;7.00;99.90;;;;;;5111379;28;20222;-84
2021/11/18 09:00:09;;;;;;;19.10;11.00;;;7.20;99.90;;;;;;5111031;28;20736;-83
2021/11/18 09:02:36;;;;;;;22.73;12.30;;;7.00;99.90;;;;;;5113830;27;20655;-84
2021/11/18 09:05:04;;;;;;;17.33;10.83;;;;;;;;;;5117078;27;20688;-84
2021/11/18 09:07:31;;;;;;;22.27;11.07;;;;;;;;;;5117257;27;20620;-83
2021/11/18 09:09:58;;;;;;;19.83;11.40;;;;;;;;;;5122560;27;21299;-85
2021/11/18 09:12:26;;;;;;;19.57;10.63;;;;;;;;;;5116874;27;20624;-84
2021/11/18 09:14:56;;;;;;;20.73;11.00;;;7.40;99.90;;;;;;5112351;27;20666;-83
2021/11/18 09:17:26;;;;;;;17.43;10.87;;;7.40;99.90;;;;;;5121733;27;21182;-83
2021/11/18 09:19:54;;;;;;;16.93;10.43;;;7.30;99.90;;;;;;5113874;27;20656;-83
2021/11/18 09:22:24;;;;;;;17.23;10.87;;;7.80;99.90;;;;;;5125016;27;20612;-84
2021/11/18 09:24:55;;;;;;;16.33;11.23;;;7.50;99.90;;;;;;5116726;27;20965;-83
2021/11/18 09:27:28;;;;;;;16.70;11.40;;;7.50;99.90;;;;;;5110830;28;20638;-84
2021/11/18 09:29:56;;;;;;;15.80;10.60;;;;;;;;;;5125870;27;20704;-84
2021/11/18 09:32:28;;;;;;;19.53;11.13;;;7.50;99.90;;;;;;5109560;27;20616;-83
2021/11/18 09:34:59;;;;;;;17.93;10.87;;;7.60;99.90;;;;;;5102889;27;21239;-84
2021/11/18 09:37:26;;;;;;;16.80;10.63;;;7.50;99.90;;;;;;5121259;27;20615;-84
2021/11/18 09:39:53;;;;;;;17.50;12.07;;;;;;;;;;5117109;27;20660;-84
2021/11/18 09:42:24;;;;;;;20.47;11.00;;;7.70;99.90;;;;;;5113439;27;20631;-84
2021/11/18 09:45:17;;;;;;;17.30;9.77;;;7.80;99.90;;;;;;5125115;27;21216;-85
2021/11/18 09:48:17;;;;;;;17.90;10.60;;;7.70;99.90;;;;;;5112333;28;20652;-84
2021/11/18 09:50:57;;;;;;;14.23;10.03;;;7.80;99.90;;;;;;5113751;28;20714;-84
2021/11/18 09:53:37;;;;;;;15.97;11.40;;;8.50;99.90;;;;;;5123335;27;20781;-84
2021/11/18 09:56:11;;;;;;;15.73;10.43;;;7.80;99.90;;;;;;5115253;27;20620;-84
2021/11/18 09:59:16;;;;;;;16.80;9.83;;;7.80;99.90;;;;;;5108999;28;20714;-84
2021/11/18 10:02:06;;;;;;;12.53;8.00;;;8.00;99.90;;;;;;5086646;28;20673;-84
2021/11/18 10:04:40;;;;;;;13.47;9.37;;;8.10;99.90;;;;;;5119820;28;20635;-84
2021/11/18 10:07:15;;;;;;;12.73;9.80;;;8.10;99.90;;;;;;5105944;28;20621;-84
2021/11/18 10:09:49;;;;;;;13.07;9.83;;;8.20;99.90;;;;;;5117927;28;20657;-84
2021/11/18 10:12:25;;;;;;;13.17;9.70;;;8.20;99.90;;;;;;5122253;28;20646;-83
2021/11/18 10:14:56;;;;;;;10.80;7.77;;;8.10;99.90;;;;;;5106371;28;20724;-84
2021/11/18 10:17:31;;;;;;;10.70;7.83;;;8.30;99.90;;;;;;5116021;27;20620;-84
2021/11/18 10:20:02;;;;;;;11.73;8.07;;;8.30;99.90;;;;;;5125700;27;20627;-85
2021/11/18 10:22:34;;;;;;;13.00;9.63;;;8.50;99.90;;;;;;5126803;27;20711;-84
2021/11/18 10:25:02;;;;;;;14.43;9.37;;;;;;;;;;5117999;27;20635;-84
2021/11/18 10:27:34;;;;;;;14.40;9.70;;;8.60;99.90;;;;;;5124906;27;20642;-84
2021/11/18 10:30:11;;;;;;;13.33;8.40;;;9.20;99.90;;;;;;5119653;27;20717;-85
2021/11/18 10:32:48;;;;;;;12.87;8.43;;;8.70;99.90;;;;;;5113428;27;20676;-84
2021/11/18 10:35:18;;;;;;;10.77;7.90;;;8.60;99.90;;;;;;5112304;28;20754;-84
2021/11/18 10:37:50;;;;;;;10.80;7.47;;;8.60;99.90;;;;;;5098312;28;21022;-85
2021/11/18 10:40:21;;;;;;;14.60;8.63;;;8.60;99.90;;;;;;5100759;28;20620;-84
2021/11/18 10:42:51;;;;;;;10.53;8.40;;;8.60;99.90;;;;;;5113669;28;20631;-85
2021/11/18 10:45:37;;;;;;;10.20;7.63;;;8.80;99.90;;;;;;5111092;28;21026;-85
2021/11/18 10:48:17;;;;;;;10.40;7.83;;;9.00;99.90;;;;;;5109056;27;20660;-85
2021/11/18 10:50:47;;;;;;;11.23;7.40;;;9.10;99.90;;;;;;5110957;28;20624;-84
2021/11/18 10:53:18;;;;;;;7.03;5.73;;;9.10;99.90;;;;;;5112159;28;21430;-85
2021/11/18 10:55:47;;;;;;;10.30;7.50;;;8.80;99.90;;;;;;5112678;28;20667;-84
2021/11/18 10:58:29;;;;;;;11.30;7.27;;;8.90;99.90;;;;;;5113697;28;20608;-85
2021/11/18 11:01:01;;;;;;;9.57;5.50;;;8.90;99.90;;;;;;5113497;28;20672;-84
2021/11/18 11:03:31;;;;;;;9.30;7.17;;;8.90;99.90;;;;;;5114016;28;20965;-85
2021/11/18 11:06:16;;;;;;;9.27;6.63;;;9.00;99.90;;;;;;5113346;28;20626;-85
2021/11/18 11:08:47;;;;;;;10.80;5.60;;;8.90;99.90;;;;;;5114475;28;20608;-85
2021/11/18 11:11:29;;;;;;;7.97;6.00;;;9.00;99.90;;;;;;5113033;28;20727;-85
2021/11/18 11:14:33;;;;;;;9.33;5.53;;;8.90;99.90;;;;;;5114119;27;20670;-85
2021/11/18 11:17:57;;;;;;;5.80;5.13;;;9.20;99.90;;;;;;5082672;28;21358;-85
2021/11/18 11:20:32;;;;;;;5.23;4.73;;;9.10;99.90;;;;;;5070603;28;20665;-85
2021/11/18 11:23:04;;;;;;;9.00;5.87;;;9.10;99.90;;;;;;5069390;28;20718;-85
2021/11/18 11:26:09;;;;;;;6.10;5.17;;;9.10;99.90;;;;;;5100845;28;20628;-86
2021/11/18 11:28:48;;;;;;;7.13;4.87;;;9.30;99.90;;;;;;5079016;27;20734;-85
2021/11/18 11:31:43;;;;;;;6.10;5.43;;;9.20;99.90;;;;;;5112348;28;20659;-85
2021/11/18 11:34:41;;;;;;;4.47;3.90;;;9.10;99.90;;;;;;5106110;28;20759;-86
2021/11/18 11:37:23;;;;;;;6.37;3.90;;;9.10;99.90;;;;;;5113862;28;20620;-85
2021/11/18 11:39:57;;;;;;;6.53;4.90;;;9.30;99.90;;;;;;5093675;28;20620;-83
2021/11/18 11:42:50;;;;;;;7.97;4.33;;;9.10;99.90;;;;;;5109590;28;21065;-81
2021/11/18 11:45:20;;;;;;;5.00;4.23;;;9.00;99.90;;;;;;5104153;28;20709;-82
2021/11/18 11:48:23;;;;;;;5.10;4.23;;;9.00;99.90;;;;;;5111243;28;20647;-85
2021/11/18 11:51:13;;;;;;;8.23;6.00;;;;;;;;;;5112455;28;20673;-85
2021/11/18 11:53:52;;;;;;;18.70;7.40;;;9.20;99.90;;;;;;5106321;28;21186;-83
2021/11/18 11:56:34;;;;;;;10.93;7.30;;;9.10;99.90;;;;;;5112050;28;20957;-85
2021/11/18 11:59:06;;;;;;;13.03;8.30;;;9.00;99.90;;;;;;5112925;28;20678;-83
2021/11/18 12:01:38;;;;;;;10.90;7.93;;;9.00;99.90;;;;;;5112958;28;20624;-84
2021/11/18 12:04:18;;;;;;;16.10;8.23;;;8.50;99.90;;;;;;5112189;28;21184;-85
2021/11/18 12:07:03;;;;;;;10.87;8.37;;;8.90;99.90;;;;;;5112228;28;21027;-84
2021/11/18 12:09:42;;;;;;;9.40;7.13;;;8.80;99.90;;;;;;5110993;28;20727;-83
2021/11/18 12:12:19;;;;;;;7.83;6.23;;;8.80;99.90;;;;;;5110801;27;20680;-81
2021/11/18 12:14:48;;;;;;;9.73;6.53;;;7.90;99.90;;;;;;5104726;28;20652;-83
2021/11/18 12:17:26;;;;;;;10.67;8.40;;;8.80;99.90;;;;;;5110555;28;20704;-83
2021/11/18 12:19:58;;;;;;;8.57;7.40;;;8.80;99.90;;;;;;5106253;28;20616;-84
2021/11/18 12:22:50;;;;;;;9.70;6.60;;;8.70;99.90;;;;;;5110164;28;20616;-84
2021/11/18 12:25:41;;;;;;;9.70;7.90;;;8.70;99.90;;;;;;5096341;28;20663;-84
2021/11/18 12:28:21;;;;;;;7.50;6.40;;;8.60;99.90;;;;;;5111720;28;20639;-84
2021/11/18 12:31:13;;;;;;;11.77;8.23;;;8.60;99.90;;;;;;5111561;28;21010;-83
2021/11/18 12:33:48;;;;;;;10.80;7.13;;;8.70;99.90;;;;;;5103378;28;21060;-83
2021/11/18 12:36:20;;;;;;;8.73;6.30;;;8.50;99.90;;;;;;5112358;28;20712;-84
2021/11/18 12:38:49;;;;;;;8.73;6.97;;;8.70;99.90;;;;;;5111761;28;20619;-85
2021/11/18 12:41:48;;;;;;;7.93;7.00;;;8.80;99.90;;;;;;5111502;28;21090;-84
2021/11/18 12:44:36;;;;;;;6.17;5.60;;;8.90;99.90;;;;;;5111140;28;20628;-84
2021/11/18 12:47:08;;;;;;;7.07;6.37;;;8.80;99.90;;;;;;5111650;28;20668;-83
2021/11/18 12:50:01;;;;;;;7.97;5.90;;;8.50;99.90;;;;;;5111704;28;21229;-83
2021/11/18 12:52:30;;;;;;;6.27;5.40;;;8.70;99.90;;;;;;5110006;28;20685;-84
2021/11/18 12:55:19;;;;;;;7.90;5.90;;;8.70;99.90;;;;;;5111295;28;20674;-84
2021/11/18 12:57:48;;;;;;;10.30;7.23;;;8.50;99.90;;;;;;5091572;28;20674;-84
2021/11/18 13:00:39;;;;;;;6.37;5.47;;;8.60;99.90;;;;;;5111486;28;20616;-84
2021/11/18 13:03:09;;;;;;;6.60;5.93;;;8.60;99.90;;;;;;5110530;28;20628;-83
2021/11/18 13:05:53;;;;;;;8.03;5.50;;;8.60;99.90;;;;;;5111187;28;20624;-83
2021/11/18 13:08:56;;;;;;;7.77;6.73;;;8.60;99.90;;;;;;5111158;28;20631;-83
2021/11/18 13:11:36;;;;;;;10.53;6.00;;;8.50;99.90;;;;;;5111733;28;20635;-83
2021/11/18 13:14:15;;;;;;;9.17;6.60;;;8.50;99.90;;;;;;5107434;28;20624;-83
2021/11/18 13:16:59;;;;;;;6.30;5.67;;;;;;;;;;5111059;28;20657;-84
2021/11/18 13:19:32;;;;;;;9.93;6.00;;;8.50;99.90;;;;;;5110747;28;21234;-83
2021/11/18 13:22:22;;;;;;;9.20;5.50;;;8.60;99.90;;;;;;5111106;28;20692;-83
2021/11/18 13:25:07;;;;;;;8.10;5.50;;;8.60;99.90;;;;;;5108881;28;20636;-85
2021/11/18 13:27:39;;;;;;;5.40;4.90;;;8.60;99.90;;;;;;5103626;28;20709;-84
2021/11/18 13:30:20;;;;;;;6.77;5.73;;;8.60;99.90;;;;;;5102550;28;21220;-83